sensor_id;sensor_type;location;lat;lon;timestamp;temperature;humidity
3550;DHT22;45572;48.804;8.330;2023-04-08T00:01:30;10.70;93.90
3550;DHT22;45572;48.804;8.330;2023-04-08T00:03:59;10.70;93.70
3550;DHT22;45572;48.804;8.330;2023-04-08T00:06:29;10.70;93.80
3550;DHT22;45572;48.804;8.330;2023-04-08T00:08:57;10.70;94.00
3550;DHT22;45572;48.804;8.330;2023-04-08T00:11:25;10.60;94.10
3550;DHT22;45572;48.804;8.330;2023-04-08T00:13:53;10.60;94.20
3550;DHT22;45572;48.804;8.330;2023-04-08T00:16:21;10.50;94.50
3550;DHT22;45572;48.804;8.330;2023-04-08T00:18:50;10.50;94.70
3550;DHT22;45572;48.804;8.330;2023-04-08T00:21:20;10.50;94.70
3550;DHT22;45572;48.804;8.330;2023-04-08T00:23:49;10.50;94.70
3550;DHT22;45572;48.804;8.330;2023-04-08T00:26:17;10.50;94.70
3550;DHT22;45572;48.804;8.330;2023-04-08T00:28:46;10.50;94.70
3550;DHT22;45572;48.804;8.330;2023-04-08T00:31:14;10.60;94.60
3550;DHT22;45572;48.804;8.330;2023-04-08T00:33:42;10.60;94.50
3550;DHT22;45572;48.804;8.330;2023-04-08T00:36:11;10.60;94.60
3550;DHT22;45572;48.804;8.330;2023-04-08T00:38:44;10.60;94.40
3550;DHT22;45572;48.804;8.330;2023-04-08T00:41:12;10.60;94.40
3550;DHT22;45572;48.804;8.330;2023-04-08T00:43:40;10.70;94.50
3550;DHT22;45572;48.804;8.330;2023-04-08T00:46:09;10.70;94.30
3550;DHT22;45572;48.804;8.330;2023-04-08T00:48:37;10.70;94.20
3550;DHT22;45572;48.804;8.330;2023-04-08T00:51:07;10.70;94.10
3550;DHT22;45572;48.804;8.330;2023-04-08T00:53:35;10.70;94.10
3550;DHT22;45572;48.804;8.330;2023-04-08T00:56:04;10.70;94.10
3550;DHT22;45572;48.804;8.330;2023-04-08T00:58:33;10.70;94.10
3550;DHT22;45572;48.804;8.330;2023-04-08T01:01:13;10.70;94.10
3550;DHT22;45572;48.804;8.330;2023-04-08T01:03:49;10.60;94.20
3550;DHT22;45572;48.804;8.330;2023-04-08T01:06:29;10.60;94.10
3550;DHT22;45572;48.804;8.330;2023-04-08T01:08:59;10.50;94.40
3550;DHT22;45572;48.804;8.330;2023-04-08T01:11:34;10.50;94.50
3550;DHT22;45572;48.804;8.330;2023-04-08T01:14:04;10.50;94.70
3550;DHT22;45572;48.804;8.330;2023-04-08T01:16:39;10.50;94.80
3550;DHT22;45572;48.804;8.330;2023-04-08T01:19:14;10.50;94.70
3550;DHT22;45572;48.804;8.330;2023-04-08T01:21:44;10.50;94.30
3550;DHT22;45572;48.804;8.330;2023-04-08T01:24:19;10.60;94.20
3550;DHT22;45572;48.804;8.330;2023-04-08T01:26:53;10.50;94.30
3550;DHT22;45572;48.804;8.330;2023-04-08T01:29:24;10.60;94.30
3550;DHT22;45572;48.804;8.330;2023-04-08T01:31:54;10.60;94.30
3550;DHT22;45572;48.804;8.330;2023-04-08T01:34:26;10.60;94.50
3550;DHT22;45572;48.804;8.330;2023-04-08T01:36:56;10.60;94.50
3550;DHT22;45572;48.804;8.330;2023-04-08T01:39:26;10.40;94.70
3550;DHT22;45572;48.804;8.330;2023-04-08T01:41:56;10.10;95.20
3550;DHT22;45572;48.804;8.330;2023-04-08T01:44:26;10.20;95.50
3550;DHT22;45572;48.804;8.330;2023-04-08T01:46:55;10.30;95.50
3550;DHT22;45572;48.804;8.330;2023-04-08T01:49:26;10.30;95.30
3550;DHT22;45572;48.804;8.330;2023-04-08T01:51:56;9.80;95.60
3550;DHT22;45572;48.804;8.330;2023-04-08T01:54:25;9.80;96.60
3550;DHT22;45572;48.804;8.330;2023-04-08T01:56:58;9.90;96.60
3550;DHT22;45572;48.804;8.330;2023-04-08T01:59:30;10.00;96.50
3550;DHT22;45572;48.804;8.330;2023-04-08T02:02:04;10.20;96.30
3550;DHT22;45572;48.804;8.330;2023-04-08T02:04:34;10.30;95.80
3550;DHT22;45572;48.804;8.330;2023-04-08T02:07:08;10.30;95.40
3550;DHT22;45572;48.804;8.330;2023-04-08T02:09:38;10.40;95.10
3550;DHT22;45572;48.804;8.330;2023-04-08T02:12:07;10.40;94.90
3550;DHT22;45572;48.804;8.330;2023-04-08T02:14:36;10.40;94.70
3550;DHT22;45572;48.804;8.330;2023-04-08T02:17:09;10.40;94.60
3550;DHT22;45572;48.804;8.330;2023-04-08T02:19:45;10.40;94.50
3550;DHT22;45572;48.804;8.330;2023-04-08T02:22:24;10.30;94.50
3550;DHT22;45572;48.804;8.330;2023-04-08T02:24:58;10.30;94.70
3550;DHT22;45572;48.804;8.330;2023-04-08T02:27:28;10.30;94.80
3550;DHT22;45572;48.804;8.330;2023-04-08T02:29:59;10.30;94.70
3550;DHT22;45572;48.804;8.330;2023-04-08T02:32:30;10.30;94.70
3550;DHT22;45572;48.804;8.330;2023-04-08T02:35:03;10.30;94.70
3550;DHT22;45572;48.804;8.330;2023-04-08T02:37:32;10.30;94.60
3550;DHT22;45572;48.804;8.330;2023-04-08T02:40:01;10.30;94.60
3550;DHT22;45572;48.804;8.330;2023-04-08T02:42:33;10.30;94.50
3550;DHT22;45572;48.804;8.330;2023-04-08T02:45:04;10.30;94.40
3550;DHT22;45572;48.804;8.330;2023-04-08T02:47:32;10.30;94.50
3550;DHT22;45572;48.804;8.330;2023-04-08T02:50:01;10.30;94.30
3550;DHT22;45572;48.804;8.330;2023-04-08T02:52:29;10.20;94.40
3550;DHT22;45572;48.804;8.330;2023-04-08T02:54:58;10.20;94.70
3550;DHT22;45572;48.804;8.330;2023-04-08T02:57:28;10.20;94.70
3550;DHT22;45572;48.804;8.330;2023-04-08T02:59:58;10.20;94.70
3550;DHT22;45572;48.804;8.330;2023-04-08T03:02:26;10.10;94.70
3550;DHT22;45572;48.804;8.330;2023-04-08T03:04:55;10.20;94.90
3550;DHT22;45572;48.804;8.330;2023-04-08T03:07:23;10.20;94.70
3550;DHT22;45572;48.804;8.330;2023-04-08T03:09:52;10.20;94.50
3550;DHT22;45572;48.804;8.330;2023-04-08T03:12:23;10.20;94.50
3550;DHT22;45572;48.804;8.330;2023-04-08T03:14:53;10.10;94.60
3550;DHT22;45572;48.804;8.330;2023-04-08T03:17:23;10.10;94.70
3550;DHT22;45572;48.804;8.330;2023-04-08T03:19:54;10.10;94.80
3550;DHT22;45572;48.804;8.330;2023-04-08T03:22:22;10.10;95.00
3550;DHT22;45572;48.804;8.330;2023-04-08T03:24:51;10.10;95.00
3550;DHT22;45572;48.804;8.330;2023-04-08T03:27:19;10.10;95.00
3550;DHT22;45572;48.804;8.330;2023-04-08T03:29:48;10.10;94.90
3550;DHT22;45572;48.804;8.330;2023-04-08T03:32:16;10.20;94.80
3550;DHT22;45572;48.804;8.330;2023-04-08T03:34:48;10.20;94.60
3550;DHT22;45572;48.804;8.330;2023-04-08T03:37:17;10.10;94.50
3550;DHT22;45572;48.804;8.330;2023-04-08T03:39:51;10.10;94.50
3550;DHT22;45572;48.804;8.330;2023-04-08T03:42:20;10.10;94.60
3550;DHT22;45572;48.804;8.330;2023-04-08T03:44:48;10.10;94.70
3550;DHT22;45572;48.804;8.330;2023-04-08T03:47:16;10.00;94.80
3550;DHT22;45572;48.804;8.330;2023-04-08T03:49:51;10.00;94.90
3550;DHT22;45572;48.804;8.330;2023-04-08T03:52:20;10.00;95.00
3550;DHT22;45572;48.804;8.330;2023-04-08T03:54:50;10.00;95.00
3550;DHT22;45572;48.804;8.330;2023-04-08T03:57:18;10.10;95.00
3550;DHT22;45572;48.804;8.330;2023-04-08T03:59:46;10.10;94.80
3550;DHT22;45572;48.804;8.330;2023-04-08T04:02:15;10.10;94.80
3550;DHT22;45572;48.804;8.330;2023-04-08T04:04:43;10.10;94.80
3550;DHT22;45572;48.804;8.330;2023-04-08T04:07:15;10.10;94.70
3550;DHT22;45572;48.804;8.330;2023-04-08T04:09:44;10.10;94.40
3550;DHT22;45572;48.804;8.330;2023-04-08T04:12:16;10.10;94.60
3550;DHT22;45572;48.804;8.330;2023-04-08T04:14:45;10.10;94.70
3550;DHT22;45572;48.804;8.330;2023-04-08T04:17:13;10.10;94.60
3550;DHT22;45572;48.804;8.330;2023-04-08T04:19:41;10.10;94.60
3550;DHT22;45572;48.804;8.330;2023-04-08T04:22:09;10.20;94.40
3550;DHT22;45572;48.804;8.330;2023-04-08T04:24:39;10.20;94.40
3550;DHT22;45572;48.804;8.330;2023-04-08T04:27:07;10.20;94.40
3550;DHT22;45572;48.804;8.330;2023-04-08T04:29:35;10.20;94.50
3550;DHT22;45572;48.804;8.330;2023-04-08T04:32:03;10.20;94.50
3550;DHT22;45572;48.804;8.330;2023-04-08T04:34:32;10.30;94.40
3550;DHT22;45572;48.804;8.330;2023-04-08T04:37:00;10.30;94.30
3550;DHT22;45572;48.804;8.330;2023-04-08T04:39:29;10.30;94.20
3550;DHT22;45572;48.804;8.330;2023-04-08T04:42:00;10.30;94.20
3550;DHT22;45572;48.804;8.330;2023-04-08T04:44:29;10.20;94.20
3550;DHT22;45572;48.804;8.330;2023-04-08T04:46:58;10.20;94.40
3550;DHT22;45572;48.804;8.330;2023-04-08T04:49:26;10.20;94.30
3550;DHT22;45572;48.804;8.330;2023-04-08T04:51:55;10.20;94.50
3550;DHT22;45572;48.804;8.330;2023-04-08T04:54:26;10.20;94.30
3550;DHT22;45572;48.804;8.330;2023-04-08T04:56:59;10.20;94.30
3550;DHT22;45572;48.804;8.330;2023-04-08T04:59:27;10.20;94.20
3550;DHT22;45572;48.804;8.330;2023-04-08T05:02:03;10.20;94.20
3550;DHT22;45572;48.804;8.330;2023-04-08T05:04:33;10.30;94.30
3550;DHT22;45572;48.804;8.330;2023-04-08T05:07:07;10.30;94.20
3550;DHT22;45572;48.804;8.330;2023-04-08T05:09:42;10.30;94.10
3550;DHT22;45572;48.804;8.330;2023-04-08T05:12:12;10.30;94.00
3550;DHT22;45572;48.804;8.330;2023-04-08T05:14:41;10.30;94.00
3550;DHT22;45572;48.804;8.330;2023-04-08T05:17:10;10.30;94.00
3550;DHT22;45572;48.804;8.330;2023-04-08T05:19:38;10.30;93.80
3550;DHT22;45572;48.804;8.330;2023-04-08T05:22:08;10.30;94.00
3550;DHT22;45572;48.804;8.330;2023-04-08T05:24:36;10.30;94.00
3550;DHT22;45572;48.804;8.330;2023-04-08T05:27:08;10.30;94.00
3550;DHT22;45572;48.804;8.330;2023-04-08T05:29:39;10.20;94.20
3550;DHT22;45572;48.804;8.330;2023-04-08T05:32:07;10.30;94.20
3550;DHT22;45572;48.804;8.330;2023-04-08T05:34:35;10.30;94.30
3550;DHT22;45572;48.804;8.330;2023-04-08T05:37:04;10.30;94.30
3550;DHT22;45572;48.804;8.330;2023-04-08T05:39:32;10.30;94.10
3550;DHT22;45572;48.804;8.330;2023-04-08T05:42:01;10.20;94.10
3550;DHT22;45572;48.804;8.330;2023-04-08T05:44:29;10.20;94.20
3550;DHT22;45572;48.804;8.330;2023-04-08T05:46:59;10.20;94.30
3550;DHT22;45572;48.804;8.330;2023-04-08T05:49:27;10.30;94.40
3550;DHT22;45572;48.804;8.330;2023-04-08T05:51:56;10.30;94.30
3550;DHT22;45572;48.804;8.330;2023-04-08T05:54:24;10.40;94.40
3550;DHT22;45572;48.804;8.330;2023-04-08T05:56:53;10.50;94.30
3550;DHT22;45572;48.804;8.330;2023-04-08T05:59:21;10.50;93.90
3550;DHT22;45572;48.804;8.330;2023-04-08T06:01:50;10.70;93.60
3550;DHT22;45572;48.804;8.330;2023-04-08T06:04:19;10.70;92.90
3550;DHT22;45572;48.804;8.330;2023-04-08T06:06:48;10.80;92.70
3550;DHT22;45572;48.804;8.330;2023-04-08T06:09:16;10.80;92.50
3550;DHT22;45572;48.804;8.330;2023-04-08T06:11:45;10.70;92.30
3550;DHT22;45572;48.804;8.330;2023-04-08T06:14:16;10.70;92.90
3550;DHT22;45572;48.804;8.330;2023-04-08T06:16:46;10.70;92.90
3550;DHT22;45572;48.804;8.330;2023-04-08T06:19:14;10.70;93.10
3550;DHT22;45572;48.804;8.330;2023-04-08T06:21:44;10.70;93.20
3550;DHT22;45572;48.804;8.330;2023-04-08T06:24:13;10.70;93.30
3550;DHT22;45572;48.804;8.330;2023-04-08T06:26:41;10.70;93.20
3550;DHT22;45572;48.804;8.330;2023-04-08T06:29:09;10.60;92.90
3550;DHT22;45572;48.804;8.330;2023-04-08T06:31:37;10.60;93.10
3550;DHT22;45572;48.804;8.330;2023-04-08T06:34:05;10.70;93.10
3550;DHT22;45572;48.804;8.330;2023-04-08T06:36:33;10.80;92.80
3550;DHT22;45572;48.804;8.330;2023-04-08T06:39:03;10.90;92.20
3550;DHT22;45572;48.804;8.330;2023-04-08T06:41:31;11.00;91.50
3550;DHT22;45572;48.804;8.330;2023-04-08T06:44:14;11.10;91.20
3550;DHT22;45572;48.804;8.330;2023-04-08T06:46:45;11.20;91.00
3550;DHT22;45572;48.804;8.330;2023-04-08T06:49:13;11.30;90.60
3550;DHT22;45572;48.804;8.330;2023-04-08T06:51:42;11.40;90.70
3550;DHT22;45572;48.804;8.330;2023-04-08T06:54:12;11.40;90.30
3550;DHT22;45572;48.804;8.330;2023-04-08T06:56:40;11.60;90.20
3550;DHT22;45572;48.804;8.330;2023-04-08T06:59:08;11.70;90.30
3550;DHT22;45572;48.804;8.330;2023-04-08T07:01:37;11.80;90.00
3550;DHT22;45572;48.804;8.330;2023-04-08T07:04:06;11.90;89.40
3550;DHT22;45572;48.804;8.330;2023-04-08T07:06:36;12.00;88.60
3550;DHT22;45572;48.804;8.330;2023-04-08T07:09:04;12.10;88.50
3550;DHT22;45572;48.804;8.330;2023-04-08T07:11:34;12.20;88.90
3550;DHT22;45572;48.804;8.330;2023-04-08T07:14:02;12.30;88.40
3550;DHT22;45572;48.804;8.330;2023-04-08T07:16:32;12.40;87.70
3550;DHT22;45572;48.804;8.330;2023-04-08T07:19:01;12.40;87.70
3550;DHT22;45572;48.804;8.330;2023-04-08T07:21:30;12.40;87.80
3550;DHT22;45572;48.804;8.330;2023-04-08T07:23:58;12.40;87.40
3550;DHT22;45572;48.804;8.330;2023-04-08T07:26:26;12.50;87.60
3550;DHT22;45572;48.804;8.330;2023-04-08T07:28:56;12.50;87.70
3550;DHT22;45572;48.804;8.330;2023-04-08T07:31:25;12.50;87.20
3550;DHT22;45572;48.804;8.330;2023-04-08T07:33:53;12.60;87.30
3550;DHT22;45572;48.804;8.330;2023-04-08T07:36:21;12.60;87.20
3550;DHT22;45572;48.804;8.330;2023-04-08T07:38:51;12.60;86.80
3550;DHT22;45572;48.804;8.330;2023-04-08T07:41:19;12.50;87.00
3550;DHT22;45572;48.804;8.330;2023-04-08T07:43:48;12.50;87.20
3550;DHT22;45572;48.804;8.330;2023-04-08T07:46:18;12.40;86.30
3550;DHT22;45572;48.804;8.330;2023-04-08T07:48:47;12.50;86.90
3550;DHT22;45572;48.804;8.330;2023-04-08T07:51:16;12.50;86.30
3550;DHT22;45572;48.804;8.330;2023-04-08T07:53:47;12.70;86.30
3550;DHT22;45572;48.804;8.330;2023-04-08T07:56:15;12.90;85.90
3550;DHT22;45572;48.804;8.330;2023-04-08T07:58:45;13.00;85.50
3550;DHT22;45572;48.804;8.330;2023-04-08T08:01:19;13.20;85.30
3550;DHT22;45572;48.804;8.330;2023-04-08T08:03:50;13.30;84.30
3550;DHT22;45572;48.804;8.330;2023-04-08T08:06:20;13.10;84.10
3550;DHT22;45572;48.804;8.330;2023-04-08T08:08:48;13.30;83.80
3550;DHT22;45572;48.804;8.330;2023-04-08T08:11:17;13.30;83.80
3550;DHT22;45572;48.804;8.330;2023-04-08T08:13:45;13.50;83.90
3550;DHT22;45572;48.804;8.330;2023-04-08T08:16:14;13.50;83.60
3550;DHT22;45572;48.804;8.330;2023-04-08T08:18:44;13.70;82.40
3550;DHT22;45572;48.804;8.330;2023-04-08T08:21:14;14.00;82.50
3550;DHT22;45572;48.804;8.330;2023-04-08T08:23:43;14.30;80.80
3550;DHT22;45572;48.804;8.330;2023-04-08T08:26:11;14.70;79.80
3550;DHT22;45572;48.804;8.330;2023-04-08T08:28:41;15.20;77.60
3550;DHT22;45572;48.804;8.330;2023-04-08T08:31:11;15.90;77.00
3550;DHT22;45572;48.804;8.330;2023-04-08T08:33:40;17.20;76.70
3550;DHT22;45572;48.804;8.330;2023-04-08T08:36:09;18.30;73.30
3550;DHT22;45572;48.804;8.330;2023-04-08T08:38:39;19.10;69.10
3550;DHT22;45572;48.804;8.330;2023-04-08T08:41:09;19.20;67.00
3550;DHT22;45572;48.804;8.330;2023-04-08T08:43:37;18.90;66.50
3550;DHT22;45572;48.804;8.330;2023-04-08T08:46:09;18.60;67.00
3550;DHT22;45572;48.804;8.330;2023-04-08T08:48:38;18.20;67.80
3550;DHT22;45572;48.804;8.330;2023-04-08T08:51:09;17.50;69.40
3550;DHT22;45572;48.804;8.330;2023-04-08T08:53:38;16.90;71.00
3550;DHT22;45572;48.804;8.330;2023-04-08T08:56:11;16.20;73.00
3550;DHT22;45572;48.804;8.330;2023-04-08T08:58:44;16.10;74.40
3550;DHT22;45572;48.804;8.330;2023-04-08T09:01:28;16.10;74.20
3550;DHT22;45572;48.804;8.330;2023-04-08T09:04:07;15.90;74.50
3550;DHT22;45572;48.804;8.330;2023-04-08T09:06:37;15.90;73.90
3550;DHT22;45572;48.804;8.330;2023-04-08T09:09:06;16.10;73.70
3550;DHT22;45572;48.804;8.330;2023-04-08T09:11:37;16.60;74.30
3550;DHT22;45572;48.804;8.330;2023-04-08T09:14:17;17.70;71.80
3550;DHT22;45572;48.804;8.330;2023-04-08T09:16:47;19.30;63.80
3550;DHT22;45572;48.804;8.330;2023-04-08T09:19:16;20.30;60.50
3550;DHT22;45572;48.804;8.330;2023-04-08T09:22:03;20.70;57.60
3550;DHT22;45572;48.804;8.330;2023-04-08T09:24:32;21.90;56.10
3550;DHT22;45572;48.804;8.330;2023-04-08T09:27:01;22.70;55.30
3550;DHT22;45572;48.804;8.330;2023-04-08T09:29:30;23.00;56.10
3550;DHT22;45572;48.804;8.330;2023-04-08T09:32:01;23.20;55.60
3550;DHT22;45572;48.804;8.330;2023-04-08T09:34:30;23.50;54.60
3550;DHT22;45572;48.804;8.330;2023-04-08T09:37:01;23.80;54.20
3550;DHT22;45572;48.804;8.330;2023-04-08T09:39:30;23.80;54.00
3550;DHT22;45572;48.804;8.330;2023-04-08T09:41:59;23.70;54.00
3550;DHT22;45572;48.804;8.330;2023-04-08T09:44:34;24.10;52.70
3550;DHT22;45572;48.804;8.330;2023-04-08T09:47:09;23.60;52.70
3550;DHT22;45572;48.804;8.330;2023-04-08T09:49:42;22.30;55.10
3550;DHT22;45572;48.804;8.330;2023-04-08T09:52:19;22.70;54.90
3550;DHT22;45572;48.804;8.330;2023-04-08T09:54:52;23.50;52.20
3550;DHT22;45572;48.804;8.330;2023-04-08T09:57:34;24.50;50.90
3550;DHT22;45572;48.804;8.330;2023-04-08T10:00:08;25.10;48.40
3550;DHT22;45572;48.804;8.330;2023-04-08T10:02:48;25.40;48.20
3550;DHT22;45572;48.804;8.330;2023-04-08T10:05:20;25.00;49.10
3550;DHT22;45572;48.804;8.330;2023-04-08T10:07:52;24.30;49.60
3550;DHT22;45572;48.804;8.330;2023-04-08T10:10:20;23.90;49.70
3550;DHT22;45572;48.804;8.330;2023-04-08T10:12:49;23.60;50.00
3550;DHT22;45572;48.804;8.330;2023-04-08T10:15:21;23.40;51.20
3550;DHT22;45572;48.804;8.330;2023-04-08T10:17:50;23.80;51.40
3550;DHT22;45572;48.804;8.330;2023-04-08T10:20:40;24.50;47.60
3550;DHT22;45572;48.804;8.330;2023-04-08T10:23:11;24.40;48.40
3550;DHT22;45572;48.804;8.330;2023-04-08T10:25:42;24.10;49.00
3550;DHT22;45572;48.804;8.330;2023-04-08T10:28:26;23.70;48.60
3550;DHT22;45572;48.804;8.330;2023-04-08T10:30:56;23.50;48.00
3550;DHT22;45572;48.804;8.330;2023-04-08T10:33:32;22.70;51.00
3550;DHT22;45572;48.804;8.330;2023-04-08T10:36:09;22.60;51.00
3550;DHT22;45572;48.804;8.330;2023-04-08T10:38:40;22.30;51.50
3550;DHT22;45572;48.804;8.330;2023-04-08T10:41:09;21.60;52.80
3550;DHT22;45572;48.804;8.330;2023-04-08T10:43:39;21.10;53.20
3550;DHT22;45572;48.804;8.330;2023-04-08T10:46:09;20.80;55.60
3550;DHT22;45572;48.804;8.330;2023-04-08T10:48:38;20.70;54.90
3550;DHT22;45572;48.804;8.330;2023-04-08T10:51:06;21.00;55.30
3550;DHT22;45572;48.804;8.330;2023-04-08T10:53:36;21.10;53.40
3550;DHT22;45572;48.804;8.330;2023-04-08T10:56:09;21.70;55.30
3550;DHT22;45572;48.804;8.330;2023-04-08T10:58:47;22.40;48.80
3550;DHT22;45572;48.804;8.330;2023-04-08T11:01:16;22.60;50.30
3550;DHT22;45572;48.804;8.330;2023-04-08T11:03:44;22.70;50.90
3550;DHT22;45572;48.804;8.330;2023-04-08T11:06:13;22.40;51.30
3550;DHT22;45572;48.804;8.330;2023-04-08T11:08:41;22.60;51.60
3550;DHT22;45572;48.804;8.330;2023-04-08T11:11:11;22.50;52.00
3550;DHT22;45572;48.804;8.330;2023-04-08T11:13:41;22.30;52.10
3550;DHT22;45572;48.804;8.330;2023-04-08T11:16:20;22.10;50.80
3550;DHT22;45572;48.804;8.330;2023-04-08T11:18:51;22.00;51.10
3550;DHT22;45572;48.804;8.330;2023-04-08T11:21:22;21.80;50.20
3550;DHT22;45572;48.804;8.330;2023-04-08T11:23:52;21.30;52.30
3550;DHT22;45572;48.804;8.330;2023-04-08T11:26:22;21.10;51.60
3550;DHT22;45572;48.804;8.330;2023-04-08T11:28:53;20.70;52.10
3550;DHT22;45572;48.804;8.330;2023-04-08T11:31:23;20.10;54.40
3550;DHT22;45572;48.804;8.330;2023-04-08T11:33:53;19.70;54.30
3550;DHT22;45572;48.804;8.330;2023-04-08T11:36:22;19.30;55.00
3550;DHT22;45572;48.804;8.330;2023-04-08T11:38:53;18.90;55.00
3550;DHT22;45572;48.804;8.330;2023-04-08T11:41:22;18.60;54.70
3550;DHT22;45572;48.804;8.330;2023-04-08T11:43:52;18.30;56.40
3550;DHT22;45572;48.804;8.330;2023-04-08T11:46:20;18.10;57.00
3550;DHT22;45572;48.804;8.330;2023-04-08T11:49:04;17.70;57.50
3550;DHT22;45572;48.804;8.330;2023-04-08T11:51:33;17.60;57.90
3550;DHT22;45572;48.804;8.330;2023-04-08T11:54:04;17.70;58.70
3550;DHT22;45572;48.804;8.330;2023-04-08T11:56:44;17.50;58.80
3550;DHT22;45572;48.804;8.330;2023-04-08T11:59:13;17.30;58.60
3550;DHT22;45572;48.804;8.330;2023-04-08T12:01:41;17.20;58.50
3550;DHT22;45572;48.804;8.330;2023-04-08T12:04:10;17.10;58.10
3550;DHT22;45572;48.804;8.330;2023-04-08T12:06:40;17.00;57.90
3550;DHT22;45572;48.804;8.330;2023-04-08T12:09:12;17.00;58.10
3550;DHT22;45572;48.804;8.330;2023-04-08T12:11:41;16.90;58.30
3550;DHT22;45572;48.804;8.330;2023-04-08T12:14:10;16.90;57.90
3550;DHT22;45572;48.804;8.330;2023-04-08T12:16:39;16.80;57.20
3550;DHT22;45572;48.804;8.330;2023-04-08T12:19:09;16.90;57.50
3550;DHT22;45572;48.804;8.330;2023-04-08T12:21:37;16.80;56.70
3550;DHT22;45572;48.804;8.330;2023-04-08T12:24:05;16.70;55.00
3550;DHT22;45572;48.804;8.330;2023-04-08T12:26:33;16.50;55.70
3550;DHT22;45572;48.804;8.330;2023-04-08T12:29:02;16.50;56.70
3550;DHT22;45572;48.804;8.330;2023-04-08T12:31:32;16.40;56.60
3550;DHT22;45572;48.804;8.330;2023-04-08T12:34:01;16.50;57.20
3550;DHT22;45572;48.804;8.330;2023-04-08T12:36:30;16.60;57.80
3550;DHT22;45572;48.804;8.330;2023-04-08T12:39:00;16.80;57.20
3550;DHT22;45572;48.804;8.330;2023-04-08T12:41:28;16.90;57.50
3550;DHT22;45572;48.804;8.330;2023-04-08T12:43:56;16.90;55.90
3550;DHT22;45572;48.804;8.330;2023-04-08T12:46:25;17.10;58.20
3550;DHT22;45572;48.804;8.330;2023-04-08T12:48:55;17.20;57.80
3550;DHT22;45572;48.804;8.330;2023-04-08T12:51:30;17.10;56.10
3550;DHT22;45572;48.804;8.330;2023-04-08T12:53:59;17.10;55.60
3550;DHT22;45572;48.804;8.330;2023-04-08T12:56:28;17.20;57.60
3550;DHT22;45572;48.804;8.330;2023-04-08T12:58:56;17.20;55.70
3550;DHT22;45572;48.804;8.330;2023-04-08T13:01:24;17.20;55.40
3550;DHT22;45572;48.804;8.330;2023-04-08T13:03:55;17.20;53.20
3550;DHT22;45572;48.804;8.330;2023-04-08T13:06:28;17.20;53.10
3550;DHT22;45572;48.804;8.330;2023-04-08T13:08:59;17.10;53.00
3550;DHT22;45572;48.804;8.330;2023-04-08T13:11:27;17.00;53.20
3550;DHT22;45572;48.804;8.330;2023-04-08T13:13:57;16.80;52.90
3550;DHT22;45572;48.804;8.330;2023-04-08T13:16:26;16.70;54.10
3550;DHT22;45572;48.804;8.330;2023-04-08T13:18:57;16.70;53.90
3550;DHT22;45572;48.804;8.330;2023-04-08T13:21:30;16.70;54.90
3550;DHT22;45572;48.804;8.330;2023-04-08T13:23:58;16.70;55.60
3550;DHT22;45572;48.804;8.330;2023-04-08T13:26:27;16.70;55.20
3550;DHT22;45572;48.804;8.330;2023-04-08T13:28:55;16.70;55.60
3550;DHT22;45572;48.804;8.330;2023-04-08T13:31:24;16.50;54.30
3550;DHT22;45572;48.804;8.330;2023-04-08T13:33:53;16.40;55.50
3550;DHT22;45572;48.804;8.330;2023-04-08T13:36:27;16.30;56.20
3550;DHT22;45572;48.804;8.330;2023-04-08T13:38:55;16.00;55.60
3550;DHT22;45572;48.804;8.330;2023-04-08T13:41:25;16.00;57.00
3550;DHT22;45572;48.804;8.330;2023-04-08T13:43:54;16.10;57.80
3550;DHT22;45572;48.804;8.330;2023-04-08T13:46:22;16.10;57.80
3550;DHT22;45572;48.804;8.330;2023-04-08T13:48:50;16.10;58.00
3550;DHT22;45572;48.804;8.330;2023-04-08T13:51:19;16.10;58.60
3550;DHT22;45572;48.804;8.330;2023-04-08T13:53:49;16.30;58.60
3550;DHT22;45572;48.804;8.330;2023-04-08T13:56:18;16.30;58.30
3550;DHT22;45572;48.804;8.330;2023-04-08T13:58:46;16.20;58.30
3550;DHT22;45572;48.804;8.330;2023-04-08T14:01:23;16.20;57.70
3550;DHT22;45572;48.804;8.330;2023-04-08T14:03:51;16.30;56.50
3550;DHT22;45572;48.804;8.330;2023-04-08T14:06:20;16.40;56.80
3550;DHT22;45572;48.804;8.330;2023-04-08T14:08:50;16.40;56.20
3550;DHT22;45572;48.804;8.330;2023-04-08T14:11:19;16.40;55.60
3550;DHT22;45572;48.804;8.330;2023-04-08T14:13:48;16.40;55.50
3550;DHT22;45572;48.804;8.330;2023-04-08T14:16:16;16.40;54.30
3550;DHT22;45572;48.804;8.330;2023-04-08T14:18:44;16.40;55.40
3550;DHT22;45572;48.804;8.330;2023-04-08T14:21:12;16.50;55.40
3550;DHT22;45572;48.804;8.330;2023-04-08T14:23:41;16.50;54.00
3550;DHT22;45572;48.804;8.330;2023-04-08T14:26:10;16.50;53.90
3550;DHT22;45572;48.804;8.330;2023-04-08T14:28:39;16.50;54.00
3550;DHT22;45572;48.804;8.330;2023-04-08T14:31:07;16.40;54.20
3550;DHT22;45572;48.804;8.330;2023-04-08T14:33:35;16.50;53.20
3550;DHT22;45572;48.804;8.330;2023-04-08T14:36:05;16.50;52.80
3550;DHT22;45572;48.804;8.330;2023-04-08T14:38:34;16.50;54.00
3550;DHT22;45572;48.804;8.330;2023-04-08T14:41:02;16.70;53.80
3550;DHT22;45572;48.804;8.330;2023-04-08T14:43:32;16.50;55.20
3550;DHT22;45572;48.804;8.330;2023-04-08T14:46:00;16.30;53.90
3550;DHT22;45572;48.804;8.330;2023-04-08T14:48:28;16.40;54.70
3550;DHT22;45572;48.804;8.330;2023-04-08T14:50:56;16.30;55.50
3550;DHT22;45572;48.804;8.330;2023-04-08T14:53:25;16.30;55.70
3550;DHT22;45572;48.804;8.330;2023-04-08T14:55:54;16.30;55.10
3550;DHT22;45572;48.804;8.330;2023-04-08T14:58:22;16.30;55.10
3550;DHT22;45572;48.804;8.330;2023-04-08T15:00:51;16.40;55.00
3550;DHT22;45572;48.804;8.330;2023-04-08T15:03:19;16.40;55.20
3550;DHT22;45572;48.804;8.330;2023-04-08T15:05:55;16.50;55.90
3550;DHT22;45572;48.804;8.330;2023-04-08T15:08:24;16.50;56.40
3550;DHT22;45572;48.804;8.330;2023-04-08T15:10:56;16.40;56.40
3550;DHT22;45572;48.804;8.330;2023-04-08T15:13:26;16.20;56.60
3550;DHT22;45572;48.804;8.330;2023-04-08T15:15:57;16.20;55.70
3550;DHT22;45572;48.804;8.330;2023-04-08T15:18:25;16.00;55.70
3550;DHT22;45572;48.804;8.330;2023-04-08T15:20:53;15.90;56.70
3550;DHT22;45572;48.804;8.330;2023-04-08T15:23:21;15.90;56.70
3550;DHT22;45572;48.804;8.330;2023-04-08T15:25:50;16.00;56.80
3550;DHT22;45572;48.804;8.330;2023-04-08T15:28:18;16.00;57.60
3550;DHT22;45572;48.804;8.330;2023-04-08T15:30:47;15.90;57.40
3550;DHT22;45572;48.804;8.330;2023-04-08T15:33:18;15.90;58.60
3550;DHT22;45572;48.804;8.330;2023-04-08T15:35:48;15.90;58.90
3550;DHT22;45572;48.804;8.330;2023-04-08T15:38:17;15.90;58.40
3550;DHT22;45572;48.804;8.330;2023-04-08T15:40:46;15.90;58.80
3550;DHT22;45572;48.804;8.330;2023-04-08T15:43:14;15.90;58.60
3550;DHT22;45572;48.804;8.330;2023-04-08T15:45:43;15.90;58.00
3550;DHT22;45572;48.804;8.330;2023-04-08T15:48:12;15.90;59.20
3550;DHT22;45572;48.804;8.330;2023-04-08T15:50:42;15.80;59.30
3550;DHT22;45572;48.804;8.330;2023-04-08T15:53:10;15.70;59.60
3550;DHT22;45572;48.804;8.330;2023-04-08T15:55:39;15.80;60.10
3550;DHT22;45572;48.804;8.330;2023-04-08T15:58:07;15.70;59.10
3550;DHT22;45572;48.804;8.330;2023-04-08T16:00:35;15.90;60.50
3550;DHT22;45572;48.804;8.330;2023-04-08T16:03:03;16.00;59.70
3550;DHT22;45572;48.804;8.330;2023-04-08T16:05:34;16.00;61.30